Time;durP1;ratioP1;P1;durP2;ratioP2;P2;SDS_P1;SDS_P2;PMS_P1;PMS_P2;Temp;Humidity;BMP_temperature;BMP_pressure;BME280_temperature;BME280_humidity;BME280_pressure;Samples;Min_cycle;Max_cycle;Signal;HPM_P1;HPM_P2
2022/01/28 00:05:00;;;;;;;28.20;6.40;;;;;;;5.44;85.72;102375.22;5070676;27;1178320;-62
2022/01/28 00:07:26;;;;;;;27.90;7.63;;;;;;;5.51;84.77;102379.22;5108565;28;20077;-62
2022/01/28 00:09:53;;;;;;;22.40;8.35;;;;;;;5.44;84.56;102380.47;5109786;28;20408;-62
2022/01/28 00:12:20;;;;;;;26.02;9.02;;;;;;;5.46;84.58;102397.03;5110112;28;20061;-63
2022/01/28 00:15:04;;;;;;;32.70;8.27;;;;;;;5.33;85.56;102407.34;5109585;28;20040;-62
2022/01/28 00:37:09;;;;;;;26.08;3.20;;;;;;;5.22;84.85;102454.41;5088083;28;20040;-62
2022/01/28 00:39:36;;;;;;;21.73;3.10;;;;;;;5.13;85.55;102457.47;5089874;28;20040;-62
2022/01/28 00:42:03;;;;;;;24.65;2.75;;;;;;;5.07;84.94;102465.69;5089789;28;20044;-63
2022/01/28 00:44:31;;;;;;;19.08;3.20;;;;;;;4.96;85.25;102474.09;5089560;28;20043;-62
2022/01/28 00:46:58;;;;;;;19.60;2.60;;;;;;;4.92;85.87;102476.03;5089365;28;20044;-63
2022/01/28 00:49:25;;;;;;;25.35;2.92;;;;;;;4.79;85.86;102485.47;5083314;28;20040;-62
2022/01/28 00:51:51;;;;;;;18.67;3.15;;;;;;;4.86;86.14;102484.25;5089637;28;20101;-63
2022/01/28 00:54:18;;;;;;;23.83;3.28;;;;;;;4.81;85.60;102491.50;5087981;28;20083;-62
2022/01/28 00:56:46;;;;;;;14.32;2.95;;;;;;;4.68;86.38;102493.84;5088154;28;20044;-63
2022/01/28 00:59:14;;;;;;;19.42;3.15;;;;;;;4.71;86.10;102491.09;5089044;28;20040;-63
2022/01/28 01:01:41;;;;;;;19.40;2.80;;;;;;;4.75;86.51;102491.78;5089603;28;20048;-63
2022/01/28 01:04:08;;;;;;;22.52;2.97;;;;;;;4.65;86.12;102493.16;5097752;28;20048;-63
2022/01/28 01:06:34;;;;;;;14.30;2.40;;;;;;;4.74;86.48;102495.34;5093390;28;20517;-63
2022/01/28 01:09:02;;;;;;;25.63;3.22;;;;;;;4.72;86.39;102499.81;5111016;28;20047;-63
2022/01/28 01:11:29;;;;;;;19.10;2.60;;;;;;;4.64;86.68;102507.22;5110786;28;20047;-63
2022/01/28 01:13:56;;;;;;;23.98;3.38;;;;;;;4.63;86.67;102516.88;5129475;28;20043;-63
2022/01/28 01:16:30;;;;;;;24.70;3.78;;;;;;;4.53;86.89;102518.22;5097359;28;20542;-63
2022/01/28 01:19:33;;;;;;;19.77;3.20;;;;;;;4.60;85.99;102520.50;5115296;28;20048;-63
2022/01/28 01:21:44;;;;;;;31.70;3.90;;;;;;;4.75;85.75;102526.81;5103290;28;20496;-64
2022/01/28 01:24:21;;;;;;;28.92;5.07;;;;;;;4.79;85.76;102525.75;5095576;28;20036;-63
2022/01/28 01:26:47;;;;;;;27.35;3.97;;;;;;;4.71;86.15;102530.53;5095473;28;20044;-64
2022/01/28 01:29:17;;;;;;;26.35;3.92;;;;;;;4.63;85.31;102527.38;5096090;28;20101;-64
2022/01/28 01:31:45;;;;;;;23.00;3.28;;;;;;;4.66;86.13;102531.63;5077710;28;20047;-64
2022/01/28 01:34:16;;;;;;;25.40;4.25;;;;;;;4.74;84.52;102532.16;5093677;28;20044;-64
2022/01/28 01:36:43;;;;;;;29.67;4.03;;;;;;;4.73;84.77;102525.16;5095340;28;20036;-63
2022/01/28 01:39:14;;;;;;;25.52;2.85;;;;;;;4.77;84.10;102526.75;5077796;28;20044;-63
2022/01/28 01:41:49;;;;;;;34.45;4.18;;;;;;;4.65;85.10;102528.16;5095618;28;20059;-64
2022/01/28 01:44:34;;;;;;;28.80;4.05;;;;;;;4.71;84.33;102527.91;5077407;28;20119;-63
2022/01/28 01:52:41;;;;;;;19.05;3.00;;;;;;;4.36;84.23;102524.25;5095256;28;20044;-64
2022/01/28 01:55:09;;;;;;;24.77;3.63;;;;;;;4.35;85.39;102531.31;5094776;28;20044;-63
2022/01/28 01:57:37;;;;;;;22.48;3.83;;;;;;;4.47;83.89;102534.28;5077011;28;20046;-64
2022/01/28 02:00:06;;;;;;;22.17;4.20;;;;;;;4.51;83.30;102535.84;5088650;28;20062;-64
2022/01/28 02:02:34;;;;;;;20.83;3.22;;;;;;;4.32;84.32;102536.69;5095301;28;20110;-64
2022/01/28 02:05:03;;;;;;;17.05;3.35;;;;;;;4.47;83.61;102531.66;5092632;28;20071;-65
2022/01/28 02:07:30;;;;;;;21.23;3.17;;;;;;;4.34;83.09;102534.00;5077028;28;20775;-62
2022/01/28 02:09:57;;;;;;;21.83;3.40;;;;;;;4.22;83.93;102538.88;5095059;28;20047;-63
2022/01/28 02:12:24;;;;;;;23.98;3.35;;;;;;;4.21;84.35;102534.53;5094899;28;20047;-64
2022/01/28 02:14:50;;;;;;;25.83;3.75;;;;;;;4.36;83.68;102556.63;5094678;28;20058;-63
2022/01/28 02:17:17;;;;;;;26.48;4.25;;;;;;;4.27;83.82;102550.94;5094778;28;20065;-63
2022/01/28 02:19:44;;;;;;;23.70;6.53;;;;;;;4.46;83.00;102562.34;5071590;28;20443;-63
2022/01/28 02:22:11;;;;;;;36.67;10.32;;;;;;;4.22;83.35;102557.28;5076703;28;20048;-63
2022/01/28 02:24:43;;;;;;;38.30;15.82;;;;;;;4.20;82.90;102569.63;5095076;28;20656;-63
2022/01/28 02:27:12;;;;;;;38.80;15.90;;;;;;;4.20;83.61;102582.75;5093012;28;20118;-63
2022/01/28 02:29:41;;;;;;;38.95;13.65;;;;;;;4.19;83.83;102580.19;5087045;28;20060;-63
2022/01/28 02:32:08;;;;;;;36.05;14.23;;;;;;;4.28;82.86;102592.09;5114244;28;20487;-63
2022/01/28 02:34:37;;;;;;;37.75;14.38;;;;;;;4.34;82.54;102599.69;5113701;28;20043;-63
2022/01/28 02:37:04;;;;;;;32.20;14.75;;;;;;;4.20;83.03;102597.66;5094020;28;20043;-63
2022/01/28 02:39:31;;;;;;;37.72;14.35;;;;;;;4.05;83.39;102596.56;5113952;28;20043;-63
2022/01/28 02:42:06;;;;;;;35.97;14.05;;;;;;;4.07;83.36;102589.47;5095898;28;20047;-63
2022/01/28 02:44:45;;;;;;;33.95;14.68;;;;;;;4.10;83.80;102591.13;5095825;28;20051;-63
2022/01/28 02:47:16;;;;;;;33.53;16.20;;;;;;;3.97;83.54;102601.28;5113488;28;20035;-63
2022/01/28 02:49:45;;;;;;;38.30;16.60;;;;;;;4.15;83.66;102600.50;5095380;28;20083;-63
2022/01/28 02:52:19;;;;;;;41.50;18.33;;;;;;;4.08;83.47;102600.84;5085965;28;20043;-63
2022/01/28 02:54:48;;;;;;;42.55;19.00;;;;;;;4.02;83.43;102601.94;5072177;28;20575;-63
2022/01/28 02:57:20;;;;;;;48.30;26.20;;;;;;;3.92;84.39;102604.09;5059216;28;20075;-63
2022/01/28 02:59:47;;;;;;;;;;;;;;;3.91;83.92;102606.78;5076345;28;20047;-63
2022/01/28 03:02:13;;;;;;;32.47;14.45;;;;;;;4.01;83.83;102597.59;5076339;28;19920;-63
2022/01/28 03:07:27;;;;;;;29.40;6.50;;;;;;;3.90;84.27;102602.47;5093390;28;20122;-63
2022/01/28 03:15:26;;;;;;;31.10;7.45;;;;;;;3.85;84.87;102628.91;5075160;28;20446;-63
2022/01/28 03:18:07;;;;;;;27.05;12.93;;;;;;;3.97;83.60;102622.31;5093286;28;20040;-63
2022/01/28 03:20:40;;;;;;;37.40;15.98;;;;;;;3.89;83.49;102617.34;5094222;28;20131;-63
2022/01/28 03:23:07;;;;;;;34.55;16.58;;;;;;;3.83;83.67;102636.84;5043314;28;20052;-63
2022/01/28 03:25:36;;;;;;;48.30;17.27;;;;;;;3.83;84.34;102636.00;5093365;28;20096;-63
2022/01/28 03:28:04;;;;;;;32.70;14.32;;;;;;;3.91;83.76;102633.94;5075830;28;20043;-63
2022/01/28 03:30:30;;;;;;;21.25;10.15;;;;;;;3.87;83.61;102637.56;5084080;28;20047;-63
2022/01/28 03:32:57;;;;;;;35.03;9.52;;;;;;;3.88;83.39;102633.19;5085541;28;20036;-63
2022/01/28 03:35:26;;;;;;;26.83;9.95;;;;;;;3.93;83.79;102650.47;5073303;28;20044;-64
2022/01/28 03:37:59;;;;;;;32.28;13.75;;;;;;;3.91;83.18;102647.06;5058511;28;20051;-63
2022/01/28 03:40:28;;;;;;;33.28;16.70;;;;;;;4.03;83.08;102643.03;5093578;28;20036;-63
2022/01/28 03:42:55;;;;;;;36.67;15.57;;;;;;;3.94;83.08;102652.16;5093232;28;20052;-63
2022/01/28 03:45:21;;;;;;;35.10;17.00;;;;;;;3.74;83.92;102650.34;5074842;28;20040;-63
2022/01/28 03:47:49;;;;;;;35.30;12.73;;;;;;;3.79;84.81;102658.91;5076057;28;20462;-64
2022/01/28 03:50:16;;;;;;;37.42;9.55;;;;;;;4.05;83.16;102672.72;5093264;28;20048;-63
2022/01/28 03:52:42;;;;;;;29.25;6.95;;;;;;;4.09;82.97;102676.06;5075162;28;20070;-63
2022/01/28 03:55:10;;;;;;;25.83;8.25;;;;;;;3.88;82.92;102681.31;5092706;28;20040;-63
2022/01/28 03:57:37;;;;;;;27.60;11.82;;;;;;;3.87;83.93;102679.59;5093226;28;20089;-63
2022/01/28 04:00:05;;;;;;;32.38;13.88;;;;;;;4.01;82.78;102677.25;5075434;28;20058;-63
2022/01/28 04:02:38;;;;;;;27.43;13.30;;;;;;;3.90;83.53;102682.09;5075370;28;20570;-63
2022/01/28 04:06:02;;;;;;;37.80;15.93;;;;;;;3.85;83.44;102687.53;5091048;28;20385;-64
2022/01/28 04:13:26;;;;;;;21.60;8.15;;;;;;;3.80;82.97;102697.38;5093093;28;20067;-63
2022/01/28 04:16:16;;;;;;;30.08;10.77;;;;;;;3.74;83.76;102697.59;5081766;28;20040;-63
2022/01/28 04:18:40;;;;;;;38.83;14.32;;;;;;;3.70;84.20;102709.16;5088498;28;20040;-63
2022/01/28 04:21:06;;;;;;;34.42;16.73;;;;;;;3.71;83.58;102710.00;5074813;28;20040;-63
2022/01/28 04:23:34;;;;;;;33.97;19.92;;;;;;;3.60;84.44;102711.31;5093309;28;20064;-63
2022/01/28 04:26:01;;;;;;;42.78;21.60;;;;;;;3.57;85.13;102706.16;5092447;28;20079;-64
2022/01/28 04:28:28;;;;;;;36.85;20.17;;;;;;;3.71;84.42;102712.63;5092624;28;20086;-64
2022/01/28 04:30:55;;;;;;;35.92;21.80;;;;;;;3.79;84.09;102708.78;5073401;28;20055;-63
2022/01/28 04:33:22;;;;;;;37.78;19.67;;;;;;;3.71;83.94;102710.00;5074714;28;20540;-63
2022/01/28 04:35:52;;;;;;;42.65;16.63;;;;;;;3.78;83.70;102706.22;5074690;28;20040;-63
2022/01/28 04:38:31;;;;;;;25.73;12.32;;;;;;;3.63;84.35;102726.06;5092318;28;20123;-63
2022/01/28 04:41:34;;;;;;;24.02;4.95;;;;;;;3.68;84.36;102718.88;5085236;28;20466;-63
2022/01/28 04:43:51;;;;;;;21.25;3.85;;;;;;;3.65;84.72;102713.72;5077657;28;20067;-64
2022/01/28 04:49:16;;;;;;;23.55;3.20;;;;;;;3.67;84.54;102724.16;5090020;28;20048;-63
2022/01/28 04:52:29;;;;;;;15.48;2.53;;;;;;;3.59;84.61;102727.09;5077651;28;20051;-63
2022/01/28 04:54:54;;;;;;;17.85;3.05;;;;;;;3.54;84.73;102724.66;5095832;28;20039;-64
2022/01/28 04:57:45;;;;;;;24.33;2.83;;;;;;;3.69;84.59;102735.47;5080829;28;20404;-63
2022/01/28 05:00:17;;;;;;;17.50;3.10;;;;;;;3.62;85.21;102740.97;5096377;28;20054;-63
2022/01/28 05:03:05;;;;;;;20.80;2.92;;;;;;;3.62;85.25;102745.34;5078416;28;20127;-63
2022/01/28 05:08:47;;;;;;;20.65;2.60;;;;;;;3.73;84.53;102744.91;5095925;28;20446;-63
2022/01/28 05:11:31;;;;;;;25.00;2.95;;;;;;;3.57;85.37;102742.06;5095872;28;20040;-64
2022/01/28 05:14:15;;;;;;;17.73;2.80;;;;;;;3.73;84.92;102751.06;5095726;28;20040;-63
2022/01/28 05:17:00;;;;;;;14.32;2.53;;;;;;;3.61;85.33;102746.28;5095257;28;20054;-63
2022/01/28 05:25:30;;;;;;;14.73;3.70;;;;;;;3.52;85.02;102763.22;5095349;28;20399;-63
2022/01/28 05:27:46;;;;;;;19.15;3.80;;;;;;;3.38;85.51;102770.75;5080979;28;20050;-63
2022/01/28 05:30:12;;;;;;;14.85;3.72;;;;;;;3.36;86.22;102765.56;5093806;28;20044;-63
2022/01/28 05:32:39;;;;;;;23.88;4.88;;;;;;;3.43;86.20;102764.41;5095584;28;20071;-63
2022/01/28 05:35:06;;;;;;;27.67;6.80;;;;;;;3.59;84.87;102766.47;5095215;28;20442;-64
2022/01/28 05:37:33;;;;;;;28.25;10.18;;;;;;;3.49;85.40;102763.31;5095419;28;20051;-63
2022/01/28 05:40:00;;;;;;;26.48;10.95;;;;;;;3.50;85.69;102767.69;5095479;28;20036;-63
2022/01/28 05:42:27;;;;;;;35.55;11.25;;;;;;;3.52;85.50;102773.72;5095294;28;20047;-63
2022/01/28 05:44:53;;;;;;;35.63;11.15;;;;;;;3.58;85.04;102777.88;5095429;28;20044;-63
2022/01/28 05:47:21;;;;;;;33.92;10.40;;;;;;;3.45;85.37;102783.59;5094911;28;20184;-63
2022/01/28 05:49:48;;;;;;;33.53;11.68;;;;;;;3.46;85.14;102785.31;5095302;28;20044;-63
2022/01/28 05:52:15;;;;;;;37.83;11.95;;;;;;;3.38;86.28;102794.38;5095031;28;20073;-63
2022/01/28 05:54:42;;;;;;;27.92;12.00;;;;;;;3.36;85.62;102794.41;5095829;28;20044;-63
2022/01/28 05:57:09;;;;;;;30.50;12.68;;;;;;;3.61;84.62;102799.63;5094909;28;20064;-63
2022/01/28 05:59:35;;;;;;;32.65;13.18;;;;;;;3.49;84.89;102791.34;5095308;28;20153;-63
2022/01/28 06:02:02;;;;;;;27.85;10.50;;;;;;;3.35;85.64;102795.34;5095165;28;20055;-63
2022/01/28 06:04:29;;;;;;;28.58;11.18;;;;;;;3.30;85.81;102801.69;5090641;28;20054;-63
2022/01/28 06:06:56;;;;;;;37.50;10.13;;;;;;;3.22;86.08;102815.06;5093244;28;20054;-63
2022/01/28 06:09:22;;;;;;;24.60;6.05;;;;;;;3.18;86.04;102814.31;5094833;28;20089;-64
2022/01/28 06:11:49;;;;;;;26.63;6.45;;;;;;;3.42;85.57;102827.44;5076707;28;20458;-63
2022/01/28 06:14:16;;;;;;;22.92;7.32;;;;;;;3.29;85.91;102821.78;5076634;28;20442;-63
2022/01/28 06:16:43;;;;;;;25.77;7.18;;;;;;;3.18;86.41;102821.34;5094811;28;20047;-63
2022/01/28 06:19:09;;;;;;;34.15;7.00;;;;;;;3.33;85.53;102826.03;5094398;28;20399;-63
2022/01/28 06:21:36;;;;;;;27.67;7.63;;;;;;;3.27;86.02;102831.50;5076471;28;20048;-63
2022/01/28 06:24:03;;;;;;;16.25;6.63;;;;;;;3.46;85.19;102840.41;5094458;28;20040;-63
2022/01/28 06:26:30;;;;;;;25.85;7.53;;;;;;;3.18;86.49;102835.28;5094788;28;20507;-63
2022/01/28 06:28:57;;;;;;;30.92;11.30;;;;;;;3.19;86.90;102834.41;5076714;28;20097;-63
2022/01/28 06:31:24;;;;;;;32.00;13.52;;;;;;;3.13;87.23;102847.75;5076534;28;20051;-63
2022/01/28 06:33:50;;;;;;;30.80;15.52;;;;;;;3.22;86.83;102836.03;5093051;28;20055;-64
2022/01/28 06:36:19;;;;;;;46.53;16.17;;;;;;;3.48;85.88;102853.47;5094177;28;20046;-63
2022/01/28 06:38:48;;;;;;;42.50;17.00;;;;;;;3.42;86.18;102849.31;5094398;28;20048;-64
2022/01/28 06:41:14;;;;;;;44.92;19.88;;;;;;;3.51;86.50;102850.75;5093946;28;20816;-63
2022/01/28 06:43:41;;;;;;;38.33;18.83;;;;;;;3.45;86.15;102856.22;5059825;28;20400;-63
2022/01/28 06:46:08;;;;;;;36.25;19.83;;;;;;;3.49;86.22;102855.19;5094205;28;20066;-63
2022/01/28 06:48:35;;;;;;;47.03;22.25;;;;;;;3.43;87.21;102861.50;5093869;28;20140;-64
2022/01/28 06:51:02;;;;;;;44.13;20.77;;;;;;;3.51;86.33;102869.13;5090016;28;20040;-63
2022/01/28 06:53:29;;;;;;;35.72;14.25;;;;;;;3.75;85.91;102866.50;5110407;28;20067;-63
2022/01/28 06:55:56;;;;;;;31.02;13.70;;;;;;;3.78;85.61;102869.00;5112425;28;20054;-64
2022/01/28 06:58:23;;;;;;;31.95;16.17;;;;;;;3.60;86.49;102874.03;5085567;28;20109;-63
2022/01/28 07:00:50;;;;;;;44.67;17.40;;;;;;;3.58;86.44;102869.72;5093747;28;20134;-64
2022/01/28 07:03:16;;;;;;;35.22;18.52;;;;;;;3.70;86.22;102873.69;5058198;28;20056;-64
2022/01/28 07:05:44;;;;;;;40.75;18.65;;;;;;;3.59;86.52;102880.19;5074684;28;20496;-64
2022/01/28 07:08:11;;;;;;;36.67;12.45;;;;;;;3.44;86.85;102884.22;5093926;28;20052;-63
2022/01/28 07:10:38;;;;;;;30.45;12.60;;;;;;;3.39;87.31;102880.91;5093709;28;20054;-63
2022/01/28 07:13:04;;;;;;;32.03;9.73;;;;;;;3.44;87.24;102878.97;5093347;28;20048;-64
2022/01/28 07:15:31;;;;;;;32.70;8.02;;;;;;;3.39;86.62;102888.78;5093623;28;20032;-63
2022/01/28 07:18:02;;;;;;;24.15;6.63;;;;;;;3.45;86.59;102885.91;5075671;28;20495;-63
2022/01/28 07:20:30;;;;;;;42.72;5.63;;;;;;;3.58;86.45;102888.09;5058837;28;20380;-63
2022/01/28 07:22:57;;;;;;;22.88;5.75;;;;;;;3.57;86.28;102896.91;5075800;28;20499;-63
2022/01/28 07:25:24;;;;;;;27.50;5.15;;;;;;;3.58;85.74;102886.31;5093398;28;20040;-63
2022/01/28 07:27:51;;;;;;;25.25;5.47;;;;;;;3.38;86.72;102894.06;5093827;28;20054;-63
2022/01/28 07:30:18;;;;;;;28.15;6.25;;;;;;;3.49;86.84;102898.94;5073360;28;20407;-64
2022/01/28 07:32:45;;;;;;;26.48;5.45;;;;;;;3.51;86.21;102910.22;5075353;28;20047;-64
2022/01/28 07:35:12;;;;;;;21.50;5.00;;;;;;;3.37;87.03;102898.47;5093373;28;20051;-63
2022/01/28 07:37:39;;;;;;;24.83;5.22;;;;;;;3.37;86.66;102905.50;5058716;28;20048;-63
2022/01/28 07:40:06;;;;;;;22.08;5.50;;;;;;;3.25;86.87;102905.00;5093190;28;20058;-63
2022/01/28 07:42:35;;;;;;;26.58;5.43;;;;;;;3.25;87.26;102898.91;5074847;28;20496;-63
2022/01/28 07:45:04;;;;;;;23.15;6.00;;;;;;;3.09;87.90;102903.81;5075564;28;20067;-63
2022/01/28 07:47:31;;;;;;;17.65;5.40;;;;;;;3.17;87.91;102903.56;5108805;28;20048;-62
2022/01/28 07:49:58;;;;;;;19.80;5.72;;;;;;;3.48;86.89;102905.97;5094554;28;20388;-63
2022/01/28 07:52:25;;;;;;;21.85;5.75;;;;;;;3.51;86.39;102910.22;5094584;28;20472;-63
2022/01/28 07:54:53;;;;;;;22.13;5.82;;;;;;;3.42;86.79;102903.53;5112462;28;20058;-63
2022/01/28 07:57:19;;;;;;;33.05;6.43;;;;;;;3.59;86.53;102906.44;5112538;28;20059;-63
2022/01/28 07:59:46;;;;;;;24.70;6.07;;;;;;;3.79;85.95;102907.47;5112510;28;20054;-64
2022/01/28 08:02:13;;;;;;;23.25;5.85;;;;;;;3.66;86.24;102912.31;5112599;28;20051;-64
2022/01/28 08:04:40;;;;;;;27.65;6.53;;;;;;;3.72;86.04;102913.88;5092143;28;20043;-64
2022/01/28 08:07:25;;;;;;;21.92;5.50;;;;;;;3.68;86.08;102920.16;5097194;28;20093;-64
2022/01/28 08:09:52;;;;;;;27.33;5.05;;;;;;;3.69;85.97;102932.34;5095089;28;20047;-64
2022/01/28 08:12:18;;;;;;;37.92;5.82;;;;;;;3.79;85.73;102934.56;5070098;28;20047;-64
2022/01/28 08:14:45;;;;;;;29.05;5.40;;;;;;;3.89;85.44;102942.97;5094274;28;20039;-64
2022/01/28 08:17:12;;;;;;;26.42;5.80;;;;;;;3.98;85.07;102941.78;5112313;28;20058;-64
2022/01/28 08:19:39;;;;;;;26.73;9.35;;;;;;;4.11;84.01;102944.78;5112368;28;20050;-64
2022/01/28 08:22:06;;;;;;;31.73;9.57;;;;;;;4.10;84.67;102945.72;5112849;28;20047;-64
2022/01/28 08:24:33;;;;;;;24.80;9.45;;;;;;;4.08;84.74;102950.19;5094332;28;20047;-64
2022/01/28 08:27:00;;;;;;;27.17;9.55;;;;;;;4.16;84.60;102956.00;5116552;28;20055;-64
2022/01/28 08:29:27;;;;;;;24.48;9.32;;;;;;;4.30;84.96;102969.47;5098094;28;20058;-64
2022/01/28 08:31:53;;;;;;;26.67;10.32;;;;;;;4.19;84.92;102969.00;5105181;28;20040;-64
2022/01/28 08:34:20;;;;;;;35.72;11.57;;;;;;;4.23;84.65;102981.13;5046913;28;20063;-65
2022/01/28 08:36:47;;;;;;;40.15;19.05;;;;;;;4.45;84.62;102978.50;5088466;28;20483;-65
2022/01/28 08:39:15;;;;;;;38.67;20.48;;;;;;;4.37;84.72;102978.81;5095773;28;20048;-65
2022/01/28 08:41:43;;;;;;;51.33;24.77;;;;;;;4.37;84.09;102988.47;5109906;28;20064;-65
2022/01/28 08:44:12;;;;;;;44.55;23.83;;;;;;;4.60;84.35;102988.44;5075476;28;20059;-65
2022/01/28 08:46:39;;;;;;;44.13;23.60;;;;;;;4.48;83.40;102983.66;5062063;28;20032;-65
2022/01/28 08:49:05;;;;;;;43.33;23.98;;;;;;;4.50;83.86;102996.75;5086457;28;20063;-65
2022/01/28 08:51:35;;;;;;;52.45;25.67;;;;;;;4.40;84.14;102996.22;5093573;28;20036;-65
2022/01/28 08:54:02;;;;;;;46.92;24.73;;;;;;;4.39;84.42;102992.75;5087907;28;20119;-65
2022/01/28 08:56:29;;;;;;;51.90;24.90;;;;;;;4.42;84.59;102997.91;5068623;28;20043;-65
2022/01/28 08:58:55;;;;;;;38.38;23.48;;;;;;;4.52;84.07;103005.44;5088113;28;20044;-63
2022/01/28 09:01:22;;;;;;;48.85;21.85;;;;;;;4.54;84.00;102991.31;5106606;28;20044;-65
2022/01/28 09:03:51;;;;;;;48.00;21.33;;;;;;;4.65;84.79;102993.50;5081692;28;20484;-65
2022/01/28 09:06:17;;;;;;;38.55;13.35;;;;;;;4.70;85.11;102988.09;5092340;28;20040;-64
2022/01/28 09:08:44;;;;;;;35.28;12.20;;;;;;;4.80;84.92;102985.03;5078001;28;20122;-63
2022/01/28 09:11:32;;;;;;;33.85;9.82;;;;;;;4.91;83.99;102989.84;5077621;28;20036;-64
2022/01/28 09:13:58;;;;;;;31.77;9.68;;;;;;;4.82;84.30;102984.97;5075571;28;20043;-64
2022/01/28 09:16:25;;;;;;;27.38;8.43;;;;;;;4.86;84.04;102988.31;5083822;28;20184;-64
2022/01/28 09:18:52;;;;;;;24.10;6.68;;;;;;;4.97;83.21;102991.38;5089647;28;20078;-64
2022/01/28 09:21:19;;;;;;;26.35;6.60;;;;;;;5.05;82.95;102993.69;5092961;28;20040;-64
2022/01/28 09:23:46;;;;;;;28.98;6.65;;;;;;;5.04;83.87;102989.34;5092885;28;20511;-64
2022/01/28 09:26:13;;;;;;;30.90;6.82;;;;;;;5.13;83.23;102996.84;5083971;28;20503;-64
2022/01/28 09:28:41;;;;;;;25.90;6.38;;;;;;;5.07;81.95;102999.75;5095818;28;20460;-64
2022/01/28 09:31:08;;;;;;;27.65;5.50;;;;;;;5.06;82.39;103005.91;5095119;28;20073;-64
2022/01/28 09:33:35;;;;;;;25.90;6.10;;;;;;;5.04;83.44;103006.00;5057468;28;20048;-64
2022/01/28 09:36:02;;;;;;;31.40;5.50;;;;;;;5.07;82.32;103007.63;5093925;28;20105;-64
2022/01/28 09:38:29;;;;;;;32.50;5.43;;;;;;;4.96;82.59;102997.53;5090693;28;20079;-64
2022/01/28 09:40:57;;;;;;;33.22;5.68;;;;;;;4.90;83.52;103008.31;5075927;28;20043;-62
2022/01/28 09:43:25;;;;;;;35.47;6.20;;;;;;;4.94;83.01;103018.66;5076493;28;20051;-62
2022/01/28 09:45:52;;;;;;;36.40;5.63;;;;;;;5.10;82.79;103018.03;5094508;28;20036;-62
2022/01/28 09:48:20;;;;;;;24.60;6.50;;;;;;;5.09;82.66;103013.69;5087490;28;20043;-64
2022/01/28 09:50:47;;;;;;;28.05;5.40;;;;;;;5.12;82.12;103016.19;5094455;28;20048;-65
2022/01/28 09:53:14;;;;;;;31.10;5.60;;;;;;;5.21;82.57;103009.72;5083736;28;20496;-65
2022/01/28 09:55:45;;;;;;;21.98;5.32;;;;;;;5.36;80.63;103014.31;5094293;28;20098;-64
2022/01/28 09:58:12;;;;;;;20.58;5.05;;;;;;;5.36;81.74;103004.63;5077526;28;20044;-64
2022/01/28 10:00:38;;;;;;;22.02;5.70;;;;;;;5.16;81.15;103009.88;5098824;28;20044;-64
2022/01/28 10:03:08;;;;;;;27.40;5.75;;;;;;;5.21;82.16;103005.28;5092251;28;20051;-64
2022/01/28 10:05:38;;;;;;;29.15;5.57;;;;;;;5.37;81.49;103009.00;5092639;28;20547;-64
2022/01/28 10:08:09;;;;;;;28.85;5.78;;;;;;;5.40;81.25;103029.06;5082412;28;20036;-64
2022/01/28 10:10:42;;;;;;;24.45;5.85;;;;;;;5.72;81.35;103025.06;5092292;28;20044;-62
2022/01/28 10:13:15;;;;;;;29.90;6.90;;;;;;;5.91;79.13;103029.50;5093913;28;20407;-62
2022/01/28 10:16:02;;;;;;;28.55;5.68;;;;;;;5.94;78.47;103035.50;5077387;28;20040;-63
2022/01/28 10:18:51;;;;;;;27.45;5.57;;;;;;;6.09;78.36;103041.06;5096656;28;20063;-63
2022/01/28 10:21:24;;;;;;;27.60;5.00;;;;;;;6.19;77.30;103045.00;5074759;28;20060;-62
2022/01/28 10:24:00;;;;;;;23.92;5.03;;;;;;;6.66;75.94;103046.38;5092172;28;20055;-65
2022/01/28 10:26:29;;;;;;;30.45;4.72;;;;;;;6.85;75.56;103047.19;5090486;28;20047;-64
2022/01/28 10:28:56;;;;;;;28.88;4.90;;;;;;;6.96;74.75;103043.19;5091352;28;20040;-63
2022/01/28 10:31:33;;;;;;;19.75;4.22;;;;;;;6.79;75.39;103050.13;5092836;28;20467;-64
2022/01/28 10:34:10;;;;;;;20.33;4.20;;;;;;;7.09;73.27;103031.09;5074642;28;20040;-64
2022/01/28 10:36:40;;;;;;;27.80;4.53;;;;;;;7.03;73.73;103040.19;5085034;28;20123;-61
2022/01/28 10:39:14;;;;;;;40.00;5.50;;;;;;;7.13;75.45;103045.88;5088203;28;20048;-59
2022/01/28 10:41:53;;;;;;;35.78;4.65;;;;;;;7.28;73.10;103041.63;5091668;28;20598;-63
2022/01/28 10:44:20;;;;;;;28.60;4.45;;;;;;;7.36;72.19;103039.44;5071099;28;20040;-63
2022/01/28 10:46:57;;;;;;;22.58;3.90;;;;;;;7.41;71.77;103040.06;5089992;28;20044;-63
2022/01/28 10:49:31;;;;;;;18.85;3.90;;;;;;;7.60;70.96;103033.84;5090756;28;20059;-63
2022/01/28 10:52:05;;;;;;;17.30;3.90;;;;;;;7.49;70.33;103044.97;5089037;28;20504;-63
2022/01/28 10:54:35;;;;;;;27.05;4.25;;;;;;;7.48;71.85;103030.06;5090348;28;20408;-62
2022/01/28 10:57:06;;;;;;;21.95;4.25;;;;;;;7.50;71.04;103041.41;5072761;28;20070;-62
2022/01/28 10:59:36;;;;;;;25.13;5.07;;;;;;;7.43;71.12;103040.00;5090513;28;20496;-62
2022/01/28 11:02:04;;;;;;;22.48;4.13;;;;;;;7.47;70.45;103041.53;5087518;28;20108;-62
2022/01/28 11:04:33;;;;;;;29.90;3.78;;;;;;;7.49;71.26;103030.00;5092876;28;20123;-62
2022/01/28 11:07:02;;;;;;;25.13;4.40;;;;;;;7.53;70.26;103030.69;5096062;28;20561;-62
2022/01/28 11:09:30;;;;;;;25.50;3.80;;;;;;;7.88;67.82;103038.56;5091785;28;20703;-62
2022/01/28 11:11:57;;;;;;;24.98;4.72;;;;;;;7.97;66.61;103037.25;5091644;28;20047;-62
2022/01/28 11:14:25;;;;;;;27.92;4.15;;;;;;;7.92;67.62;103032.19;5091638;28;20507;-62
2022/01/28 11:16:52;;;;;;;21.83;4.00;;;;;;;8.10;67.50;103048.88;5054160;28;20047;-63
2022/01/28 11:19:22;;;;;;;22.63;4.03;;;;;;;8.00;68.48;103040.53;5091495;28;20135;-63
2022/01/28 11:25:05;;;;;;;32.22;3.92;;;;;;;7.51;67.69;103051.00;5087642;28;20437;-63
2022/01/28 11:27:36;;;;;;;22.80;3.85;;;;;;;7.34;69.75;103051.03;5085355;28;20115;-63
2022/01/28 11:30:23;;;;;;;21.95;3.63;;;;;;;7.54;70.36;103047.38;5083427;28;21797;-63
2022/01/28 11:33:00;;;;;;;28.00;3.85;;;;;;;7.50;69.49;103051.97;5082223;28;20041;-63
2022/01/28 11:35:41;;;;;;;18.65;3.53;;;;;;;8.16;68.32;103053.81;5084631;28;20044;-63
2022/01/28 11:41:10;;;;;;;24.98;5.32;;;;;;;8.16;68.09;103034.47;5062274;28;20134;-64
2022/01/28 11:43:47;;;;;;;19.30;3.58;;;;;;;10.06;60.91;103027.09;5052807;28;20405;-64
2022/01/28 11:46:22;;;;;;;24.95;4.18;;;;;;;11.28;56.56;103020.19;5060089;28;20120;-62
2022/01/28 11:54:13;;;;;;;16.10;3.03;;;;;;;9.10;62.65;103006.31;5088649;27;20764;-64
2022/01/28 11:59:41;;;;;;;25.42;3.83;;;;;;;11.14;56.20;103003.34;5075391;28;20391;-61
2022/01/28 12:02:22;;;;;;;22.08;3.80;;;;;;;11.85;55.48;103006.50;5039529;28;20448;-62
2022/01/28 12:04:52;;;;;;;25.02;3.90;;;;;;;11.45;54.64;102990.66;5074926;28;20046;-62
2022/01/28 12:07:24;;;;;;;21.20;3.53;;;;;;;10.19;58.28;102998.88;5071922;28;20048;-61
2022/01/28 12:09:55;;;;;;;24.70;3.72;;;;;;;9.64;60.41;102994.31;5070276;28;20064;-61
2022/01/28 12:15:24;;;;;;;23.38;3.53;;;;;;;8.55;64.39;102991.78;5113321;27;20886;-63
2022/01/28 12:18:09;;;;;;;19.15;3.20;;;;;;;8.30;65.00;102999.34;5086366;28;20051;-63
2022/01/28 12:21:01;;;;;;;21.60;4.35;;;;;;;8.08;65.64;102998.72;5095508;28;20068;-63
2022/01/28 12:23:28;;;;;;;24.27;4.13;;;;;;;8.04;66.78;102989.25;5032354;28;20373;-63
2022/01/28 12:25:57;;;;;;;24.48;4.45;;;;;;;8.04;66.42;102980.44;5082593;28;20051;-62
2022/01/28 12:28:42;;;;;;;24.65;4.68;;;;;;;7.73;67.50;102978.59;5103020;28;20040;-63
2022/01/28 12:31:16;;;;;;;25.35;4.22;;;;;;;7.58;67.79;102981.09;5101588;28;20039;-63
2022/01/28 12:33:48;;;;;;;27.17;4.65;;;;;;;7.69;67.91;102981.41;5087702;28;20046;-63
2022/01/28 12:36:21;;;;;;;25.23;4.38;;;;;;;8.13;65.66;102979.09;5105441;28;20138;-63
2022/01/28 12:39:32;;;;;;;19.25;3.40;;;;;;;8.44;62.19;102983.56;5102245;28;20036;-63
2022/01/28 12:41:51;;;;;;;22.00;3.80;;;;;;;8.60;64.56;102989.75;5082899;28;20142;-63
2022/01/28 12:44:18;;;;;;;22.33;3.53;;;;;;;8.54;62.70;102982.13;5107728;28;20050;-63
2022/01/28 12:46:54;;;;;;;21.83;3.60;;;;;;;8.71;62.81;102983.81;5107335;28;20044;-63